Time;durP1;ratioP1;P1;durP2;ratioP2;P2;SDS_P1;SDS_P2;PMS_P1;PMS_P2;Temp;Humidity;BMP_temperature;BMP_pressure;BME280_temperature;BME280_humidity;BME280_pressure;Samples;Min_cycle;Max_cycle;Signal;HPM_P1;HPM_P2
2024/04/15 00:01:07;;;;;;;;;;;;;;;12.11;50.36;101007.94;4404982;26;20367;-68
2024/04/15 00:03:08;;;;;;;;;;;;;;;12.13;50.55;100995.09;4350120;27;20291;-68
2024/04/15 00:05:11;;;;;;;;;;;;;;;12.15;50.48;100994.91;4408683;26;19937;-68
2024/04/15 00:07:15;;;;;;;;;;;;;;;12.17;50.20;100985.56;4409133;26;19930;-68
2024/04/15 00:09:19;;;;;;;;;;;;;;;12.18;50.24;100970.19;4408463;26;19937;-68
2024/04/15 00:11:20;;;;;;;;;;;;;;;12.21;49.99;100972.50;4408016;26;19966;-69
2024/04/15 00:13:23;;;;;;;;;;;;;;;12.25;50.02;100979.22;4407225;26;19987;-67
2024/04/15 00:15:26;;;;;;;;;;;;;;;12.29;50.29;100968.88;4379197;27;19931;-68
2024/04/15 00:17:29;;;;;;;;;;;;;;;12.32;50.86;100968.50;4407208;26;19941;-68
2024/04/15 00:19:30;;;;;;;;;;;;;;;12.35;50.41;100974.41;4406502;26;20226;-69
2024/04/15 00:21:34;;;;;;;;;;;;;;;12.39;50.13;100972.19;4408152;26;19941;-68
2024/04/15 00:23:38;;;;;;;;;;;;;;;12.37;50.00;100958.81;4406164;26;20275;-68
2024/04/15 00:25:43;;;;;;;;;;;;;;;12.46;49.53;100964.16;4407425;26;20300;-68
2024/04/15 00:27:46;;;;;;;;;;;;;;;12.49;49.37;100963.78;4376322;27;19930;-67
2024/04/15 00:29:50;;;;;;;;;;;;;;;12.51;49.26;100954.47;4407957;26;19936;-69
2024/04/15 00:31:51;;;;;;;;;;;;;;;12.54;49.27;100955.94;4408289;26;19937;-68
2024/04/15 00:33:56;;;;;;;;;;;;;;;12.56;49.22;100956.63;4407353;26;19930;-68
2024/04/15 00:35:57;;;;;;;;;;;;;;;12.57;49.18;100956.44;4407512;26;19941;-68
2024/04/15 00:38:01;;;;;;;;;;;;;;;12.58;49.38;100960.81;4407924;26;19933;-68
2024/04/15 00:40:05;;;;;;;;;;;;;;;12.58;49.41;100971.63;4407591;26;19937;-68
2024/04/15 00:42:08;;;;;;;;;;;;;;;12.60;49.59;100968.75;4406171;26;19966;-68
2024/04/15 00:44:09;;;;;;;;;;;;;;;12.61;49.39;100978.56;4407935;26;20372;-68
2024/04/15 00:46:13;;;;;;;;;;;;;;;12.64;49.25;100980.06;4406164;26;19934;-68
2024/04/15 00:48:15;;;;;;;;;;;;;;;12.63;49.09;100979.22;4406105;26;20392;-67
2024/04/15 00:50:16;;;;;;;;;;;;;;;12.64;49.04;100983.63;4408914;26;19937;-66
2024/04/15 00:52:19;;;;;;;;;;;;;;;12.65;48.65;100981.75;4407134;26;19942;-68
2024/04/15 00:54:21;;;;;;;;;;;;;;;12.65;48.66;100981.75;4408236;26;19934;-67
2024/04/15 00:56:27;;;;;;;;;;;;;;;12.65;48.71;100979.91;4404717;26;19942;-67
2024/04/15 00:58:30;;;;;;;;;;;;;;;12.65;48.74;100979.03;4408129;26;20272;-67
2024/04/15 01:00:35;;;;;;;;;;;;;;;12.64;48.66;100969.25;4409512;26;19996;-68
2024/04/15 01:02:36;;;;;;;;;;;;;;;12.64;48.76;100969.25;4406568;26;19946;-67
2024/04/15 01:04:39;;;;;;;;;;;;;;;12.63;48.86;100962.97;4376733;26;19938;-69
2024/04/15 01:06:40;;;;;;;;;;;;;;;12.62;48.76;100964.00;4407987;26;20481;-67
2024/04/15 01:08:45;;;;;;;;;;;;;;;12.61;48.80;100965.84;4408697;26;19934;-67
2024/04/15 01:10:48;;;;;;;;;;;;;;;12.62;48.97;100966.72;4408274;26;20115;-67
2024/04/15 01:12:52;;;;;;;;;;;;;;;12.61;48.87;100949.59;4406397;26;19930;-66
2024/04/15 01:14:57;;;;;;;;;;;;;;;12.61;48.68;100937.94;4406319;26;20337;-67
2024/04/15 01:16:58;;;;;;;;;;;;;;;12.59;48.82;100929.97;4406635;26;19942;-67
2024/04/15 01:19:02;;;;;;;;;;;;;;;12.58;49.07;100933.72;4406531;26;20357;-68
2024/04/15 01:21:03;;;;;;;;;;;;;;;12.58;49.22;100933.72;4407744;26;19937;-67
2024/04/15 01:23:07;;;;;;;;;;;;;;;12.57;49.01;100925.75;4407674;26;19930;-67
2024/04/15 01:25:11;;;;;;;;;;;;;;;12.56;49.24;100927.66;4405898;26;19942;-68
2024/04/15 01:27:14;;;;;;;;;;;;;;;12.55;49.61;100919.69;4407135;26;19937;-67
2024/04/15 01:29:16;;;;;;;;;;;;;;;12.54;49.10;100924.28;4407543;26;19930;-67
2024/04/15 01:31:19;;;;;;;;;;;;;;;12.53;49.41;100921.75;4376743;27;20035;-68
2024/04/15 01:33:21;;;;;;;;;;;;;;;12.49;49.53;100915.88;4407003;26;20345;-67
2024/04/15 01:35:24;;;;;;;;;;;;;;;12.49;50.11;100912.31;4406261;26;19930;-68
2024/04/15 01:37:28;;;;;;;;;;;;;;;12.48;50.13;100907.94;4408022;26;19996;-68
2024/04/15 01:39:31;;;;;;;;;;;;;;;12.48;50.50;100916.06;4375922;27;19938;-67
2024/04/15 01:41:35;;;;;;;;;;;;;;;12.48;50.68;100914.19;4407594;26;20008;-68
2024/04/15 01:43:40;;;;;;;;;;;;;;;12.48;50.40;100906.06;4406820;26;19931;-67
2024/04/15 01:45:41;;;;;;;;;;;;;;;12.48;50.44;100902.53;4406629;26;20000;-68
2024/04/15 01:47:46;;;;;;;;;;;;;;;12.48;50.42;100903.34;4405095;26;19942;-67
2024/04/15 01:49:47;;;;;;;;;;;;;;;12.48;50.56;100905.22;4408446;26;19930;-67
2024/04/15 01:51:50;;;;;;;;;;;;;;;12.46;50.00;100916.25;4404425;26;19938;-68
2024/04/15 01:53:51;;;;;;;;;;;;;;;12.44;49.88;100902.91;4350989;27;19931;-67
2024/04/15 01:55:55;;;;;;;;;;;;;;;12.45;50.24;100925.41;4405432;26;19930;-66
2024/04/15 01:57:58;;;;;;;;;;;;;;;12.43;50.12;100895.78;4407904;26;19942;-66
2024/04/15 02:00:02;;;;;;;;;;;;;;;12.42;50.09;100894.09;4406803;26;19931;-67
2024/04/15 02:02:12;;;;;;;;;;;;;;;12.44;50.27;100886.66;4407844;26;19930;-66
2024/04/15 02:04:16;;;;;;;;;;;;;;;12.46;50.56;100878.34;4335329;27;19942;-66
2024/04/15 02:06:17;;;;;;;;;;;;;;;12.47;50.37;100884.56;4404560;26;20288;-67
2024/04/15 02:08:21;;;;;;;;;;;;;;;12.46;50.24;100878.34;4406983;26;19930;-67
2024/04/15 02:10:22;;;;;;;;;;;;;;;12.44;50.22;100873.09;4404871;26;20583;-66
2024/04/15 02:12:25;;;;;;;;;;;;;;;12.44;50.66;100862.25;4405960;26;19937;-66
2024/04/15 02:14:29;;;;;;;;;;;;;;;12.44;50.65;100858.69;4404949;26;19930;-67
2024/04/15 02:16:33;;;;;;;;;;;;;;;12.42;50.17;100858.03;4405115;26;19938;-67
2024/04/15 02:18:35;;;;;;;;;;;;;;;12.42;50.30;100861.59;4406812;26;20364;-67
2024/04/15 02:20:40;;;;;;;;;;;;;;;12.41;50.55;100851.81;4406692;26;19937;-67
2024/04/15 02:22:40;;;;;;;;;;;;;;;12.38;50.41;100848.59;4406499;26;19942;-66
2024/04/15 02:24:44;;;;;;;;;;;;;;;12.38;50.76;100851.31;4403226;26;20346;-67
2024/04/15 02:26:45;;;;;;;;;;;;;;;12.38;50.73;100851.31;4406888;26;20376;-67
2024/04/15 02:28:49;;;;;;;;;;;;;;;12.35;50.48;100854.38;4407307;26;19938;-67
2024/04/15 02:30:52;;;;;;;;;;;;;;;12.33;50.49;100851.88;4407096;26;19937;-66
2024/04/15 02:32:56;;;;;;;;;;;;;;;12.32;50.84;100860.19;4405870;26;19938;-66
2024/04/15 02:34:57;;;;;;;;;;;;;;;12.32;51.18;100852.91;4406904;26;19949;-66
2024/04/15 02:37:01;;;;;;;;;;;;;;;12.33;51.12;100865.41;4405976;26;21223;-66
2024/04/15 02:39:02;;;;;;;;;;;;;;;12.34;51.10;100858.97;4406732;26;19938;-66
2024/04/15 02:41:06;;;;;;;;;;;;;;;12.36;51.02;100866.91;4405341;26;20284;-66
2024/04/15 02:43:07;;;;;;;;;;;;;;;12.34;50.68;100861.69;4406888;26;19999;-66
2024/04/15 02:45:11;;;;;;;;;;;;;;;12.37;50.51;100863.19;4406031;26;19930;-66
2024/04/15 02:47:14;;;;;;;;;;;;;;;12.37;50.84;100863.19;4406057;26;19930;-67
2024/04/15 02:49:18;;;;;;;;;;;;;;;12.35;50.92;100855.25;4405790;26;20267;-67
2024/04/15 02:51:19;;;;;;;;;;;;;;;12.33;51.19;100849.16;4406803;26;19937;-66
2024/04/15 02:53:25;;;;;;;;;;;;;;;12.31;51.93;100837.69;4405866;26;19930;-67
2024/04/15 02:55:26;;;;;;;;;;;;;;;12.26;52.01;100840.94;4406006;26;20388;-67
2024/04/15 02:57:30;;;;;;;;;;;;;;;12.24;51.47;100843.00;4406606;26;19929;-66
2024/04/15 02:59:31;;;;;;;;;;;;;;;12.20;51.80;100841.69;4406535;26;19937;-67
2024/04/15 03:01:34;;;;;;;;;;;;;;;12.18;52.46;100837.50;4404828;26;19941;-67
2024/04/15 03:03:39;;;;;;;;;;;;;;;12.16;51.97;100823.28;4406815;26;19930;-68
2024/04/15 03:05:43;;;;;;;;;;;;;;;12.12;51.98;100825.53;4405871;26;19941;-67
2024/04/15 03:07:47;;;;;;;;;;;;;;;12.14;52.35;100831.59;4407378;26;19930;-68
2024/04/15 03:09:54;;;;;;;;;;;;;;;12.16;52.50;100831.41;4405008;26;19930;-68
2024/04/15 03:11:55;;;;;;;;;;;;;;;12.18;52.46;100832.09;4404291;26;20388;-68
2024/04/15 03:14:00;;;;;;;;;;;;;;;12.16;52.81;100818.72;4375605;27;19938;-67
2024/04/15 03:16:01;;;;;;;;;;;;;;;12.15;52.65;100808.91;4404683;26;20309;-68
2024/04/15 03:18:05;;;;;;;;;;;;;;;12.14;52.67;100806.41;4405380;26;19930;-67
2024/04/15 03:20:10;;;;;;;;;;;;;;;12.10;53.05;100795.09;4405740;26;19954;-68
2024/04/15 03:22:13;;;;;;;;;;;;;;;12.08;53.49;100802.56;4406247;26;20008;-68
2024/04/15 03:24:14;;;;;;;;;;;;;;;12.06;53.65;100808.16;4406567;26;20017;-68
2024/04/15 03:26:18;;;;;;;;;;;;;;;12.05;53.35;100800.22;4404276;26;19930;-68
2024/04/15 03:28:19;;;;;;;;;;;;;;;12.04;53.77;100796.69;4406606;26;19931;-68
2024/04/15 03:30:22;;;;;;;;;;;;;;;12.03;54.19;100796.88;4406116;26;20036;-68
2024/04/15 03:32:24;;;;;;;;;;;;;;;12.03;54.44;100802.28;4406295;26;19931;-67
2024/04/15 03:34:27;;;;;;;;;;;;;;;12.04;54.31;100799.38;4405361;26;19945;-68
2024/04/15 03:36:31;;;;;;;;;;;;;;;12.04;53.87;100796.69;4407547;26;19937;-68
2024/04/15 03:38:35;;;;;;;;;;;;;;;12.04;53.31;100785.84;4407361;26;19930;-68
2024/04/15 03:40:36;;;;;;;;;;;;;;;12.05;52.84;100781.25;4405880;26;19974;-68
2024/04/15 03:42:39;;;;;;;;;;;;;;;12.04;52.45;100790.44;4408615;26;19930;-68
2024/04/15 03:44:41;;;;;;;;;;;;;;;12.02;52.33;100787.91;4408307;26;19931;-68
2024/04/15 03:46:47;;;;;;;;;;;;;;;11.99;51.80;100787.41;4409269;26;19930;-68
2024/04/15 03:48:50;;;;;;;;;;;;;;;11.95;51.80;100781.53;4352225;27;19931;-68
2024/04/15 03:50:53;;;;;;;;;;;;;;;11.95;52.25;100786.13;4407774;26;19941;-68
2024/04/15 03:52:58;;;;;;;;;;;;;;;11.89;51.79;100780.38;4408279;26;19930;-68
2024/04/15 03:55:03;;;;;;;;;;;;;;;11.88;52.84;100770.59;4407883;26;19937;-68
2024/04/15 03:57:04;;;;;;;;;;;;;;;11.84;52.73;100768.44;4408573;26;19930;-67
2024/04/15 03:59:08;;;;;;;;;;;;;;;11.81;53.01;100768.81;4407832;26;20429;-66
2024/04/15 04:01:09;;;;;;;;;;;;;;;11.78;53.76;100770.00;4409071;26;19930;-68
2024/04/15 04:03:14;;;;;;;;;;;;;;;11.79;54.28;100773.56;4408071;26;19930;-68
2024/04/15 04:05:15;;;;;;;;;;;;;;;11.78;54.81;100763.75;4408137;26;19999;-67
2024/04/15 04:07:20;;;;;;;;;;;;;;;11.76;54.78;100757.72;4409514;26;19931;-67
2024/04/15 04:09:24;;;;;;;;;;;;;;;11.71;55.37;100745.56;4377722;26;19957;-67
2024/04/15 04:11:28;;;;;;;;;;;;;;;11.69;55.75;100733.22;4406926;26;20388;-68
2024/04/15 04:13:29;;;;;;;;;;;;;;;11.67;56.09;100724.47;4404754;26;20368;-65
2024/04/15 04:15:32;;;;;;;;;;;;;;;11.65;56.67;100723.81;4406269;26;19930;-67
2024/04/15 04:17:33;;;;;;;;;;;;;;;11.62;56.68;100716.91;4404239;26;19930;-67
2024/04/15 04:19:37;;;;;;;;;;;;;;;11.60;57.10;100716.25;4407699;26;20449;-68
2024/04/15 04:21:38;;;;;;;;;;;;;;;11.60;57.13;100720.81;4408355;26;20216;-68
2024/04/15 04:23:42;;;;;;;;;;;;;;;11.56;57.15;100714.94;4404537;26;19938;-68
2024/04/15 04:25:46;;;;;;;;;;;;;;;11.53;57.13;100718.00;4407391;26;20246;-68
2024/04/15 04:27:50;;;;;;;;;;;;;;;11.50;56.99;100718.38;4408118;26;19931;-68
2024/04/15 04:29:51;;;;;;;;;;;;;;;11.46;57.37;100715.19;4404558;26;20018;-68
2024/04/15 04:31:54;;;;;;;;;;;;;;;11.44;57.41;100714.56;4406149;26;20279;-67
2024/04/15 04:33:55;;;;;;;;;;;;;;;11.42;57.11;100702.22;4407290;26;19931;-68
2024/04/15 04:35:59;;;;;;;;;;;;;;;11.38;56.99;100696.34;4377484;27;19942;-67
2024/04/15 04:38:00;;;;;;;;;;;;;;;11.34;57.33;100693.16;4408784;26;19934;-68
2024/04/15 04:40:04;;;;;;;;;;;;;;;11.33;57.67;100687.94;4406215;26;19930;-68
2024/04/15 04:42:08;;;;;;;;;;;;;;;11.30;57.49;100691.88;4406643;26;19930;-68
2024/04/15 04:44:11;;;;;;;;;;;;;;;11.28;57.76;100691.19;4407413;26;19998;-68
2024/04/15 04:46:12;;;;;;;;;;;;;;;11.28;58.07;100701.16;4408190;26;19945;-68
2024/04/15 04:48:16;;;;;;;;;;;;;;;11.25;58.33;100698.84;4405924;26;19937;-68
2024/04/15 04:50:17;;;;;;;;;;;;;;;11.24;58.55;100711.53;4407556;26;19946;-68
2024/04/15 04:52:21;;;;;;;;;;;;;;;11.21;58.85;100719.13;4376888;27;20308;-68
2024/04/15 04:54:22;;;;;;;;;;;;;;;11.18;59.14;100717.66;4408362;26;19931;-67
2024/04/15 04:56:25;;;;;;;;;;;;;;;11.16;59.25;100725.94;4401598;26;20005;-67
2024/04/15 04:58:29;;;;;;;;;;;;;;;11.15;59.39;100720.72;4405457;26;19930;-67
2024/04/15 05:00:32;;;;;;;;;;;;;;;11.13;59.71;100726.31;4406738;26;19938;-67
2024/04/15 05:02:33;;;;;;;;;;;;;;;11.14;60.09;100729.84;4407130;26;20285;-67
2024/04/15 05:04:34;;;;;;;;;;;;;;;11.13;60.26;100731.72;4406301;26;19931;-67
2024/04/15 05:06:39;;;;;;;;;;;;;;;11.15;60.35;100747.75;4406840;26;19930;-67
2024/04/15 05:08:40;;;;;;;;;;;;;;;11.17;60.23;100757.38;4406409;26;19938;-67
2024/04/15 05:10:44;;;;;;;;;;;;;;;11.21;60.10;100754.28;4404856;26;19941;-67
2024/04/15 05:12:45;;;;;;;;;;;;;;;11.21;59.95;100760.53;4406142;26;19938;-67
2024/04/15 05:14:52;;;;;;;;;;;;;;;11.25;59.69;100766.41;4404849;26;19946;-67
2024/04/15 05:16:53;;;;;;;;;;;;;;;11.27;59.15;100767.06;4405954;26;19946;-67
2024/04/15 05:18:57;;;;;;;;;;;;;;;11.29;58.49;100759.63;4405036;26;19930;-68
2024/04/15 05:20:59;;;;;;;;;;;;;;;11.31;58.34;100763.00;4404970;26;20369;-68
2024/04/15 05:23:00;;;;;;;;;;;;;;;11.33;57.74;100761.81;4406050;26;20367;-68
2024/04/15 05:25:04;;;;;;;;;;;;;;;11.36;57.75;100760.56;4405038;26;19941;-68
2024/04/15 05:27:05;;;;;;;;;;;;;;;11.36;57.46;100755.16;4407278;26;19930;-68
2024/04/15 05:29:08;;;;;;;;;;;;;;;11.38;57.37;100736.91;4401645;26;19930;-68
2024/04/15 05:31:13;;;;;;;;;;;;;;;11.39;57.37;100732.34;4405903;26;19969;-68
2024/04/15 05:33:16;;;;;;;;;;;;;;;11.41;57.31;100733.84;4405337;26;19930;-68
2024/04/15 05:35:17;;;;;;;;;;;;;;;11.42;57.01;100729.28;4407376;26;19929;-68
2024/04/15 05:37:21;;;;;;;;;;;;;;;11.41;56.15;100736.56;4406506;26;19937;-68
2024/04/15 05:39:22;;;;;;;;;;;;;;;11.43;56.25;100734.50;4404885;26;20007;-67
2024/04/15 05:41:26;;;;;;;;;;;;;;;11.45;56.28;100737.03;4405884;26;19938;-68
2024/04/15 05:43:27;;;;;;;;;;;;;;;11.47;56.20;100734.97;4406692;26;19942;-68
2024/04/15 05:45:30;;;;;;;;;;;;;;;11.48;56.44;100736.66;4376333;27;20400;-68
2024/04/15 05:47:34;;;;;;;;;;;;;;;11.50;56.38;100730.06;4406523;26;19945;-67
2024/04/15 05:49:38;;;;;;;;;;;;;;;11.53;56.23;100721.53;4405902;26;19940;-67
2024/04/15 05:51:39;;;;;;;;;;;;;;;11.57;55.96;100716.63;4406531;26;19966;-67
2024/04/15 05:53:42;;;;;;;;;;;;;;;11.58;54.89;100718.28;4407166;26;19931;-67
2024/04/15 05:55:43;;;;;;;;;;;;;;;11.60;54.47;100716.25;4375611;26;20403;-67
2024/04/15 05:57:47;;;;;;;;;;;;;;;11.64;54.37;100722.97;4405486;26;19930;-67
2024/04/15 05:59:48;;;;;;;;;;;;;;;11.65;54.44;100719.25;4405068;26;20384;-66
2024/04/15 06:01:52;;;;;;;;;;;;;;;11.66;54.39;100709.25;4405281;26;19932;-67
2024/04/15 06:03:55;;;;;;;;;;;;;;;11.65;54.21;100707.59;4407486;26;19930;-67
2024/04/15 06:05:59;;;;;;;;;;;;;;;11.64;54.00;100698.63;4406179;26;19962;-67
2024/04/15 06:08:00;;;;;;;;;;;;;;;11.67;54.39;100708.25;4407695;26;19930;-67
2024/04/15 06:12:21;;;;;;;;;;;;;;;11.71;53.76;100704.16;4453088;21;20371;-66
2024/04/15 06:14:22;;;;;;;;;;;;;;;11.75;53.86;100699.19;4420110;26;19930;-67
2024/04/15 06:16:26;;;;;;;;;;;;;;;11.78;53.77;100693.41;4418376;26;19942;-66
2024/04/15 06:18:27;;;;;;;;;;;;;;;11.80;53.35;100694.91;4418908;26;19943;-66
2024/04/15 06:20:33;;;;;;;;;;;;;;;11.81;53.17;100693.88;4419504;26;20916;-66
2024/04/15 06:22:34;;;;;;;;;;;;;;;11.85;53.61;100695.19;4421193;26;19930;-66
2024/04/15 06:24:38;;;;;;;;;;;;;;;11.88;53.63;100692.09;4419231;26;20000;-67
2024/04/15 06:26:39;;;;;;;;;;;;;;;11.90;53.58;100692.75;4419866;26;19930;-66
2024/04/15 06:28:42;;;;;;;;;;;;;;;11.94;52.94;100692.41;4390863;26;19931;-66
2024/04/15 06:30:44;;;;;;;;;;;;;;;11.97;52.99;100690.16;4391317;27;19985;-66
2024/04/15 06:32:48;;;;;;;;;;;;;;;11.99;52.09;100685.41;4419869;26;19941;-66
2024/04/15 06:34:50;;;;;;;;;;;;;;;12.02;52.55;100692.31;4421031;26;20403;-66
2024/04/15 06:36:56;;;;;;;;;;;;;;;12.05;52.39;100679.25;4420510;26;19934;-66
2024/04/15 14:45:27;;;;;;;;;;;;;;;15.04;52.72;99777.03;4376228;26;19942;-68
2024/04/15 14:47:28;;;;;;;;;;;;;;;15.04;53.02;99768.88;4390734;26;19995;-68
2024/04/15 14:49:31;;;;;;;;;;;;;;;15.03;52.76;99762.63;4359503;27;19935;-68
2024/04/15 14:51:32;;;;;;;;;;;;;;;15.05;52.90;99762.38;4390089;26;19930;-68
2024/04/15 14:53:37;;;;;;;;;;;;;;;15.05;52.86;99759.66;4378433;27;19931;-67
2024/04/15 14:55:37;;;;;;;;;;;;;;;15.04;52.86;99764.25;4362239;27;19942;-67
2024/04/15 14:57:38;;;;;;;;;;;;;;;15.05;52.85;99743.34;4362188;27;19931;-67
2024/04/15 14:59:44;;;;;;;;;;;;;;;15.04;52.59;99734.34;4363063;27;19931;-66
2024/04/15 15:01:48;;;;;;;;;;;;;;;15.05;52.79;99735.19;4362928;27;20015;-67
2024/04/15 15:03:51;;;;;;;;;;;;;;;15.05;52.81;99732.47;4359568;27;19931;-67
2024/04/15 15:05:52;;;;;;;;;;;;;;;15.06;52.45;99723.22;4321467;27;20417;-67
2024/04/15 15:07:56;;;;;;;;;;;;;;;15.07;52.34;99720.28;4364178;27;19943;-67
2024/04/15 15:09:57;;;;;;;;;;;;;;;15.06;52.51;99706.91;4362279;27;20322;-67
2024/04/15 15:12:01;;;;;;;;;;;;;;;15.06;52.43;99705.06;4364259;27;19935;-67
2024/04/15 15:14:02;;;;;;;;;;;;;;;15.07;52.64;99695.81;4364922;27;19938;-67
2024/04/15 15:16:06;;;;;;;;;;;;;;;15.08;52.55;99705.63;4363730;27;19935;-67
2024/04/15 15:18:09;;;;;;;;;;;;;;;15.09;52.40;99693.72;4363543;27;20347;-66
2024/04/15 15:20:13;;;;;;;;;;;;;;;15.09;52.38;99684.69;4362743;27;19937;-66
2024/04/15 15:22:16;;;;;;;;;;;;;;;15.09;52.25;99681.97;4362384;27;20285;-66
2024/04/15 15:24:20;;;;;;;;;;;;;;;15.08;52.29;99683.88;4363082;27;19931;-67
2024/04/15 15:26:21;;;;;;;;;;;;;;;15.07;52.46;99665.91;4362889;27;20435;-67
2024/04/15 15:28:24;;;;;;;;;;;;;;;15.08;52.52;99673.00;4362868;27;19963;-68
2024/04/15 15:30:26;;;;;;;;;;;;;;;15.08;52.32;99661.31;4363128;27;19941;-67
2024/04/15 15:32:29;;;;;;;;;;;;;;;15.08;52.35;99658.59;4361426;27;19935;-67
2024/04/15 15:34:33;;;;;;;;;;;;;;;15.09;52.39;99657.50;4362452;27;20301;-67
2024/04/15 15:36:37;;;;;;;;;;;;;;;15.09;51.74;99642.03;4362906;27;20009;-67
2024/04/15 15:38:38;;;;;;;;;;;;;;;15.09;51.95;99641.19;4361542;27;19970;-67
2024/04/15 15:40:41;;;;;;;;;;;;;;;15.09;52.26;99633.88;4326383;27;19938;-68
2024/04/15 15:42:42;;;;;;;;;;;;;;;15.11;51.93;99630.94;4359867;27;19947;-68
2024/04/15 15:44:46;;;;;;;;;;;;;;;15.10;52.22;99626.53;4361796;27;19942;-68
2024/04/15 15:46:47;;;;;;;;;;;;;;;15.10;52.34;99610.22;4359076;27;19938;-67
2024/04/15 15:48:51;;;;;;;;;;;;;;;15.10;52.53;99602.88;4361445;27;20001;-67
2024/04/15 15:50:55;;;;;;;;;;;;;;;15.10;52.51;99602.88;4360887;27;19938;-68
2024/04/15 15:52:58;;;;;;;;;;;;;;;15.08;52.42;99582.44;4361263;27;20364;-67
2024/04/15 15:55:01;;;;;;;;;;;;;;;15.09;52.58;99579.50;4361688;27;19931;-67
2024/04/15 15:57:04;;;;;;;;;;;;;;;15.07;52.73;99576.16;4362052;27;19939;-67
2024/04/15 15:59:05;;;;;;;;;;;;;;;15.09;52.71;99576.78;4332837;27;19931;-67
2024/04/15 16:01:09;;;;;;;;;;;;;;;15.09;52.64;99574.06;4362598;27;20285;-67
2024/04/15 16:03:10;;;;;;;;;;;;;;;15.09;52.35;99565.91;4362373;27;19931;-67
2024/04/15 16:05:14;;;;;;;;;;;;;;;15.08;52.46;99555.25;4362295;27;19942;-67
2024/04/15 16:07:18;;;;;;;;;;;;;;;15.07;52.31;99559.84;4362037;27;19931;-67
2024/04/15 16:09:22;;;;;;;;;;;;;;;15.07;52.11;99550.88;4360509;27;20001;-68
2024/04/15 16:11:23;;;;;;;;;;;;;;;15.08;52.29;99547.09;4362915;27;20045;-68
2024/04/15 16:13:27;;;;;;;;;;;;;;;15.07;52.30;99542.72;4363324;27;19931;-67
2024/04/15 16:15:28;;;;;;;;;;;;;;;15.06;52.46;99541.91;4362444;27;19938;-67
2024/04/15 16:17:32;;;;;;;;;;;;;;;15.07;52.36;99540.00;4365371;27;20580;-67
2024/04/15 16:19:33;;;;;;;;;;;;;;;15.06;52.27;99533.75;4360512;27;19938;-67
2024/04/15 16:21:39;;;;;;;;;;;;;;;15.06;52.22;99533.75;4363534;27;19943;-67
2024/04/15 16:23:42;;;;;;;;;;;;;;;15.06;52.22;99513.84;4362827;27;19938;-67
2024/04/15 16:25:46;;;;;;;;;;;;;;;15.05;52.54;99521.19;4360044;27;19931;-67
2024/04/15 16:27:47;;;;;;;;;;;;;;;15.05;52.55;99510.31;4353801;27;20692;-67
2024/04/15 16:29:50;;;;;;;;;;;;;;;15.06;52.44;99502.97;4361169;27;20368;-67
2024/04/15 16:31:51;;;;;;;;;;;;;;;15.05;52.63;99495.91;4360584;27;19938;-67
2024/04/15 16:33:55;;;;;;;;;;;;;;;15.04;52.78;99488.81;4362118;27;19931;-68
2024/04/15 16:35:59;;;;;;;;;;;;;;;15.03;52.81;99485.28;4362624;27;19931;-68
2024/04/15 16:38:03;;;;;;;;;;;;;;;15.03;53.07;99481.69;4330365;27;19939;-67
2024/04/15 16:40:08;;;;;;;;;;;;;;;15.04;53.28;99486.91;4363122;27;19932;-68
2024/04/15 16:42:11;;;;;;;;;;;;;;;15.04;53.40;99481.47;4361936;27;19931;-68
2024/04/15 16:44:12;;;;;;;;;;;;;;;15.04;53.57;99481.47;4363432;27;19939;-68
2024/04/15 16:46:16;;;;;;;;;;;;;;;15.03;53.50;99481.69;4366450;27;20332;-68
2024/04/15 16:48:17;;;;;;;;;;;;;;;15.03;53.79;99471.66;4372631;27;19971;-68
2024/04/15 16:50:25;;;;;;;;;;;;;;;15.02;53.76;99458.31;4365811;27;19931;-68
2024/04/15 16:52:26;;;;;;;;;;;;;;;15.00;54.01;99454.97;4365629;27;19931;-68
2024/04/15 16:54:29;;;;;;;;;;;;;;;15.01;54.06;99459.38;4365990;27;20440;-68
2024/04/15 16:56:33;;;;;;;;;;;;;;;15.00;53.96;99447.69;4365185;27;20366;-68
2024/04/15 16:58:37;;;;;;;;;;;;;;;15.00;54.10;99444.13;4363749;27;19939;-68
2024/04/15 17:00:37;;;;;;;;;;;;;;;15.00;54.08;99435.94;4368479;27;20185;-68
2024/04/15 17:02:41;;;;;;;;;;;;;;;15.00;54.19;99441.38;4367264;27;20365;-68
2024/04/15 17:04:43;;;;;;;;;;;;;;;14.98;54.27;99438.91;4367241;27;19931;-68
2024/04/15 17:06:46;;;;;;;;;;;;;;;14.98;54.60;99436.19;4366099;27;19941;-67
2024/04/15 17:08:47;;;;;;;;;;;;;;;14.98;54.60;99427.22;4365987;27;19931;-67
2024/04/15 17:10:51;;;;;;;;;;;;;;;14.97;54.60;99415.53;4364899;27;19931;-69
2024/04/15 17:12:54;;;;;;;;;;;;;;;14.96;54.79;99405.72;4365820;27;20310;-68
2024/04/15 17:14:58;;;;;;;;;;;;;;;14.95;54.67;99396.72;4364431;27;19955;-68
2024/04/15 17:16:59;;;;;;;;;;;;;;;14.96;54.67;99394.84;4365235;27;19938;-68
2024/04/15 17:19:03;;;;;;;;;;;;;;;14.94;54.53;99386.91;4355078;27;19938;-68
2024/04/15 17:21:04;;;;;;;;;;;;;;;14.93;54.94;99381.72;4362497;27;20041;-68
2024/04/15 17:23:08;;;;;;;;;;;;;;;14.92;54.99;99378.19;4364921;27;19931;-68
2024/04/15 17:25:09;;;;;;;;;;;;;;;14.94;55.13;99369.78;4364577;27;20386;-68
2024/04/15 17:27:12;;;;;;;;;;;;;;;14.92;55.12;99369.19;4367069;27;19938;-68
2024/04/15 17:29:16;;;;;;;;;;;;;;;14.91;55.53;99362.09;4365539;27;19931;-68
2024/04/15 17:31:17;;;;;;;;;;;;;;;14.90;55.39;99365.88;4367947;27;19939;-68
2024/04/15 17:33:20;;;;;;;;;;;;;;;14.89;55.64;99375.94;4365639;27;19942;-68
2024/04/15 17:35:21;;;;;;;;;;;;;;;14.87;55.75;99371.78;4364611;27;19986;-68
2024/04/15 17:37:25;;;;;;;;;;;;;;;14.85;55.78;99376.66;4354252;27;19935;-68
2024/04/15 17:39:26;;;;;;;;;;;;;;;14.83;56.21;99370.59;4365383;27;20261;-68
2024/04/15 17:41:30;;;;;;;;;;;;;;;14.80;56.19;99371.94;4364207;27;19939;-70
2024/04/15 17:43:31;;;;;;;;;;;;;;;14.78;56.41;99374.06;4364384;27;19932;-67
2024/04/15 17:45:37;;;;;;;;;;;;;;;14.75;56.50;99369.94;4365007;27;19931;-67
2024/04/15 17:47:38;;;;;;;;;;;;;;;14.74;56.75;99357.38;4366031;27;19955;-68
2024/04/15 17:49:41;;;;;;;;;;;;;;;14.72;56.64;99351.38;4365708;27;19931;-68
2024/04/15 17:51:44;;;;;;;;;;;;;;;14.71;56.33;99347.00;4363487;27;19931;-67
2024/04/15 17:53:48;;;;;;;;;;;;;;;14.69;55.43;99342.88;4356580;27;20293;-67
2024/04/15 17:55:50;;;;;;;;;;;;;;;14.66;55.12;99338.75;4365594;27;19935;-67
2024/04/15 17:57:56;;;;;;;;;;;;;;;14.65;55.07;99328.94;4336152;27;19931;-67
2024/04/15 17:59:57;;;;;;;;;;;;;;;14.63;55.20;99311.22;4336279;27;19953;-66
2024/04/15 18:02:04;;;;;;;;;;;;;;;14.61;55.49;99311.47;4367283;27;19942;-67
2024/04/15 18:04:05;;;;;;;;;;;;;;;14.58;55.25;99315.44;4370101;26;19943;-67
2024/04/15 18:06:09;;;;;;;;;;;;;;;14.55;55.17;99318.63;4364633;27;19942;-67
2024/04/15 18:08:10;;;;;;;;;;;;;;;14.53;55.08;99309.91;4360958;27;19931;-69
2024/04/15 18:10:14;;;;;;;;;;;;;;;14.52;54.63;99304.72;4363505;27;20001;-69
2024/04/15 18:12:15;;;;;;;;;;;;;;;14.48;53.70;99293.50;4364660;27;19938;-69
2024/04/15 18:14:19;;;;;;;;;;;;;;;14.46;53.43;99283.94;4364220;27;20002;-68
2024/04/15 18:16:20;;;;;;;;;;;;;;;14.43;53.23;99290.66;4367229;27;20022;-67
2024/04/15 18:18:27;;;;;;;;;;;;;;;14.39;53.05;99279.44;4334407;27;20207;-69
2024/04/15 18:20:28;;;;;;;;;;;;;;;14.37;52.97;99281.59;4362148;27;19939;-68
2024/04/15 18:22:32;;;;;;;;;;;;;;;14.35;53.26;99277.44;4364411;27;20005;-68
2024/04/15 18:24:34;;;;;;;;;;;;;;;14.32;53.45;99270.59;4366250;27;20026;-68
2024/04/15 18:26:37;;;;;;;;;;;;;;;14.29;53.81;99273.78;4363567;27;19931;-68
2024/04/15 18:28:38;;;;;;;;;;;;;;;14.27;54.32;99283.25;4362781;27;20381;-68
2024/04/15 18:30:42;;;;;;;;;;;;;;;14.24;54.79;99273.66;4364583;27;19950;-68
2024/04/15 18:32:43;;;;;;;;;;;;;;;14.20;55.36;99278.75;4335773;27;19942;-68
2024/04/15 18:34:50;;;;;;;;;;;;;;;14.17;55.94;99273.78;4363211;27;19931;-68
2024/04/15 18:36:51;;;;;;;;;;;;;;;14.14;56.35;99281.59;4364950;27;19942;-68
2024/04/15 18:38:55;;;;;;;;;;;;;;;14.11;56.89;99279.34;4365088;27;19931;-68
2024/04/15 18:40:56;;;;;;;;;;;;;;;14.09;57.62;99273.31;4335747;27;20001;-67
2024/04/15 18:43:00;;;;;;;;;;;;;;;14.07;57.91;99273.56;4363144;27;20001;-68